createdAt,value
2018-11-13T00:00:34.399Z,22.97
2018-11-13T00:03:58.131Z,24.00
2018-11-13T00:07:14.666Z,23.43
2018-11-13T00:10:30.600Z,23.50
2018-11-13T00:13:46.731Z,22.90
2018-11-13T00:17:02.627Z,24.30
2018-11-13T00:20:19.236Z,24.33
2018-11-13T00:23:35.258Z,25.57
2018-11-13T00:26:51.190Z,24.00
2018-11-13T00:30:07.523Z,24.80
2018-11-13T00:33:12.360Z,24.80
2018-11-13T00:36:36.068Z,23.77
2018-11-13T00:39:51.921Z,25.70
2018-11-13T00:43:08.426Z,24.97
2018-11-13T00:46:13.214Z,25.83
2018-11-13T00:49:18.019Z,25.53
2018-11-13T00:52:42.327Z,24.02
2018-11-13T00:55:47.242Z,26.65
2018-11-13T00:58:52.132Z,25.17
2018-11-13T01:02:15.835Z,26.13
2018-11-13T01:05:39.526Z,25.57
2018-11-13T01:08:56.035Z,25.13
2018-11-13T01:12:00.855Z,24.10
2018-11-13T01:15:24.960Z,25.50
2018-11-13T01:18:29.800Z,27.90
2018-11-13T01:21:35.171Z,25.50
2018-11-13T01:24:58.872Z,24.12
2018-11-13T01:28:22.562Z,23.67
2018-11-13T01:31:39.047Z,25.43
2018-11-13T01:34:55.349Z,26.00
2018-11-13T01:38:10.950Z,24.45
2018-11-13T01:41:27.541Z,26.47
2018-11-13T01:44:32.414Z,25.47
2018-11-13T01:47:56.112Z,25.23
2018-11-13T01:51:19.881Z,25.50
2018-11-13T01:54:35.605Z,25.13
2018-11-13T01:57:51.604Z,27.10
2018-11-13T02:01:07.371Z,26.53
2018-11-13T02:04:12.239Z,27.17
2018-11-13T02:07:35.960Z,28.90
2018-11-13T02:10:40.781Z,27.20
2018-11-13T02:14:04.454Z,28.50
2018-11-13T02:17:20.924Z,28.40
2018-11-13T02:20:37.157Z,28.50
2018-11-13T02:23:42.018Z,28.20
2018-11-13T02:26:46.799Z,30.60
2018-11-13T02:30:11.947Z,32.48
2018-11-13T02:33:16.711Z,29.90
2018-11-13T02:36:40.397Z,30.53
2018-11-13T02:39:56.809Z,30.43
2018-11-13T02:43:01.660Z,30.77
2018-11-13T02:46:25.423Z,32.43
2018-11-13T02:49:41.796Z,32.40
2018-11-13T02:52:57.883Z,31.00
2018-11-13T02:56:14.005Z,31.63
2018-11-13T02:59:30.554Z,32.90
2018-11-13T03:02:35.374Z,32.23
2018-11-13T03:05:59.047Z,32.10
2018-11-13T03:09:22.801Z,31.70
2018-11-13T03:12:38.989Z,30.57
2018-11-13T03:15:55.469Z,33.00
2018-11-13T03:19:11.378Z,30.10
2018-11-13T03:22:27.761Z,31.20
2018-11-13T03:25:43.999Z,30.60
2018-11-13T03:28:59.785Z,31.03
2018-11-13T03:32:05.498Z,31.93
2018-11-13T03:35:29.432Z,31.23
2018-11-13T03:38:53.168Z,31.10
2018-11-13T03:42:09.019Z,31.67
2018-11-13T03:45:14.255Z,32.63
2018-11-13T03:48:37.951Z,30.70
2018-11-13T03:52:01.696Z,32.70
2018-11-13T03:55:07.735Z,31.80
2018-11-13T03:58:12.559Z,30.08
2018-11-13T04:01:36.253Z,28.98
2018-11-13T04:04:59.968Z,28.62
2018-11-13T04:08:05.444Z,30.55
2018-11-13T04:11:29.129Z,30.63
2018-11-13T04:14:33.908Z,30.57
2018-11-13T04:17:57.566Z,28.10
2018-11-13T04:21:21.249Z,28.52
2018-11-13T04:24:37.012Z,30.13
2018-11-13T04:27:53.191Z,29.53
2018-11-13T04:31:08.971Z,31.33
2018-11-13T04:34:24.910Z,30.90
2018-11-13T04:37:40.926Z,28.83
2018-11-13T04:40:45.879Z,28.60
2018-11-13T04:43:50.696Z,29.07
2018-11-13T04:47:14.365Z,30.95
2018-11-13T04:50:30.988Z,31.40
2018-11-13T04:53:54.690Z,29.00
2018-11-13T04:57:18.433Z,30.68
2018-11-13T05:00:34.821Z,30.87
2018-11-13T05:03:39.606Z,28.40
2018-11-13T05:06:44.463Z,28.62
2018-11-13T05:10:09.356Z,27.82
2018-11-13T05:13:25.892Z,28.53
2018-11-13T05:16:30.766Z,27.77
2018-11-13T05:19:35.606Z,29.33
2018-11-13T05:22:40.376Z,28.80
2018-11-13T05:26:04.074Z,29.12
2018-11-13T05:29:09.075Z,27.40
2018-11-13T05:32:32.786Z,26.80
2018-11-13T05:35:56.483Z,28.70
2018-11-13T05:39:15.593Z,28.07
2018-11-13T05:42:31.920Z,28.47
2018-11-13T05:45:36.722Z,27.50
2018-11-13T05:48:41.530Z,28.50
2018-11-13T05:52:05.313Z,28.60
2018-11-13T05:55:28.952Z,26.37
2018-11-13T05:58:52.595Z,28.42
2018-11-13T06:02:09.450Z,27.10
2018-11-13T06:05:14.576Z,28.97
2018-11-13T06:08:38.348Z,26.50
2018-11-13T06:12:01.989Z,26.20
2018-11-13T06:15:07.462Z,26.00
2018-11-13T06:18:31.154Z,25.90
2018-11-13T06:21:54.869Z,25.87
2018-11-13T06:25:11.978Z,26.00
2018-11-13T06:28:28.055Z,25.50
2018-11-13T06:35:15.107Z,25.30
2018-11-13T06:38:38.820Z,24.97
2018-11-13T06:41:55.395Z,24.52
2018-11-13T06:45:00.330Z,25.50
2018-11-13T06:48:06.161Z,24.00
2018-11-13T06:51:29.804Z,25.83
2018-11-13T06:54:46.218Z,26.20
2018-11-13T06:58:02.541Z,23.90
2018-11-13T07:01:18.947Z,25.20
2018-11-13T07:04:35.134Z,24.20
2018-11-13T07:07:39.961Z,24.03
2018-11-13T07:11:03.667Z,23.07
2018-11-13T07:14:19.291Z,23.47
2018-11-13T07:17:35.165Z,21.15
2018-11-13T07:20:52.536Z,22.00
2018-11-13T07:24:07.360Z,20.47
2018-11-13T07:27:23.422Z,19.30
2018-11-13T07:30:39.460Z,19.48
2018-11-13T07:33:56.003Z,18.30
2018-11-13T07:37:12.470Z,17.27
2018-11-13T07:40:28.625Z,18.00
2018-11-13T07:43:44.909Z,16.37
2018-11-13T07:46:49.805Z,16.82
2018-11-13T07:50:14.058Z,17.03
2018-11-13T07:53:37.775Z,16.77
2018-11-13T07:56:54.195Z,15.80
2018-11-13T08:00:10.134Z,15.77
2018-11-13T08:03:28.655Z,15.50
2018-11-13T08:06:44.759Z,14.90
2018-11-13T08:10:01.241Z,15.43
2018-11-13T08:13:06.215Z,14.57
2018-11-13T08:16:29.846Z,14.67
2018-11-13T08:19:53.607Z,13.30
2018-11-13T08:23:09.547Z,13.10
2018-11-13T08:26:25.766Z,13.10
2018-11-13T08:29:42.075Z,13.30
2018-11-13T08:32:47.361Z,12.03
2018-11-13T08:35:52.180Z,10.93
2018-11-13T08:39:15.860Z,10.50
2018-11-13T08:42:20.716Z,10.80
2018-11-13T08:45:25.525Z,9.93
2018-11-13T08:48:49.271Z,9.78
2018-11-13T08:52:12.925Z,9.40
2018-11-13T08:55:36.624Z,9.03
2018-11-13T08:59:00.452Z,9.00
2018-11-13T09:02:06.080Z,9.73
2018-11-13T09:05:29.884Z,9.40
2018-11-13T09:08:46.316Z,9.10
2018-11-13T09:12:02.561Z,9.67
2018-11-13T09:15:22.008Z,8.48
2018-11-13T09:18:38.158Z,8.80
2018-11-13T09:21:54.222Z,8.18
2018-11-13T09:25:10.573Z,8.03
2018-11-13T09:28:26.006Z,7.73
2018-11-13T09:31:42.398Z,8.20
2018-11-13T09:34:59.063Z,7.70
2018-11-13T09:38:04.303Z,7.73
2018-11-13T09:41:27.976Z,7.37
2018-11-13T09:44:32.842Z,7.80
2018-11-13T09:47:56.477Z,8.10
2018-11-13T09:51:20.210Z,7.73
2018-11-13T09:54:36.375Z,7.67
2018-11-13T09:57:41.151Z,8.80
2018-11-13T10:01:04.739Z,8.55
2018-11-13T10:04:28.890Z,8.70
2018-11-13T10:07:44.948Z,8.43
2018-11-13T10:11:01.427Z,9.20
2018-11-13T10:14:06.509Z,9.55
2018-11-13T10:17:11.280Z,8.90
2018-11-13T10:20:17.533Z,10.00
2018-11-13T10:23:41.199Z,10.10
2018-11-13T10:26:57.605Z,10.30
2018-11-13T10:30:14.893Z,10.43
2018-11-13T10:33:19.694Z,9.90
2018-11-13T10:36:43.368Z,10.10
2018-11-13T10:40:07.299Z,10.20
2018-11-13T10:43:31.042Z,9.63
2018-11-13T10:46:55.100Z,9.20
2018-11-13T10:50:19.974Z,8.80
2018-11-13T10:53:43.624Z,9.17
2018-11-13T10:56:59.584Z,8.27
2018-11-13T11:00:34.515Z,9.00
2018-11-13T11:04:07.582Z,8.30
2018-11-13T11:07:23.804Z,7.80
2018-11-13T11:10:28.663Z,7.72
2018-11-13T11:13:52.516Z,7.10
2018-11-13T11:17:16.066Z,6.47
2018-11-13T11:20:31.974Z,6.90
2018-11-13T11:23:48.314Z,6.90
2018-11-13T11:27:04.318Z,7.85
2018-11-13T11:30:11.273Z,7.00
2018-11-13T11:33:34.978Z,6.80
2018-11-13T11:36:58.682Z,5.63
2018-11-13T11:40:14.604Z,6.60
2018-11-13T11:43:30.907Z,6.62
2018-11-13T11:46:36.404Z,6.60
2018-11-13T11:50:00.106Z,5.78
2018-11-13T11:53:16.692Z,6.50
2018-11-13T11:56:33.091Z,5.80
2018-11-13T11:59:37.948Z,5.77
2018-11-13T12:03:01.657Z,6.23
2018-11-13T12:06:06.550Z,4.78
2018-11-13T12:09:30.273Z,5.60
2018-11-13T12:12:35.088Z,4.70
2018-11-13T12:15:58.760Z,4.73
2018-11-13T12:19:15.277Z,4.70
2018-11-13T12:22:33.185Z,5.07
2018-11-13T12:25:46.765Z,4.97
2018-11-13T12:28:51.599Z,5.20
2018-11-13T12:31:56.403Z,4.75
2018-11-13T12:35:20.853Z,4.60
2018-11-13T12:38:37.580Z,5.05
2018-11-13T12:41:42.532Z,5.15
2018-11-13T12:44:47.398Z,5.60
2018-11-13T12:48:11.165Z,5.43
2018-11-13T12:51:34.950Z,4.90
2018-11-13T12:54:39.820Z,4.67
2018-11-13T12:58:03.477Z,3.80
2018-11-13T13:01:08.270Z,2.80
2018-11-13T13:04:13.090Z,2.50
2018-11-13T13:07:36.808Z,2.50
2018-11-13T13:11:00.473Z,2.87
2018-11-13T13:14:23.876Z,2.80
2018-11-13T13:17:47.588Z,3.00
2018-11-13T13:21:03.893Z,3.13
2018-11-13T13:24:08.721Z,3.47
2018-11-13T13:27:32.399Z,3.10
2018-11-13T13:30:48.809Z,3.80
2018-11-13T13:34:05.159Z,3.90
2018-11-13T13:37:20.753Z,4.03
2018-11-13T13:40:37.481Z,4.03
2018-11-13T13:43:54.074Z,4.30
2018-11-13T13:47:10.003Z,4.93
2018-11-13T13:50:14.810Z,4.97
2018-11-13T13:53:38.590Z,4.78
2018-11-13T13:57:02.284Z,6.10
2018-11-13T14:00:18.532Z,5.50
2018-11-13T14:03:35.000Z,5.00
2018-11-13T14:06:51.000Z,5.30
2018-11-13T14:10:07.153Z,5.40
2018-11-13T14:13:22.886Z,5.17
2018-11-13T14:16:27.774Z,5.90
2018-11-13T14:19:51.471Z,5.25
2018-11-13T14:23:15.207Z,5.17
2018-11-13T14:26:31.096Z,4.97
2018-11-13T14:29:37.140Z,4.60
2018-11-13T14:33:02.258Z,5.23
2018-11-13T14:36:25.928Z,5.20
2018-11-13T14:39:30.763Z,6.65
2018-11-13T14:42:54.453Z,7.77
2018-11-13T14:46:10.167Z,5.30
2018-11-13T14:49:26.195Z,5.08
2018-11-13T14:52:42.182Z,4.30
2018-11-13T14:55:58.038Z,4.75
2018-11-13T14:59:14.403Z,4.10
2018-11-13T15:02:30.327Z,4.60
2018-11-13T15:05:46.544Z,5.10
2018-11-13T15:08:51.449Z,4.93
2018-11-13T15:11:56.298Z,4.17
2018-11-13T15:15:20.220Z,4.90
2018-11-13T15:18:43.913Z,4.97
2018-11-13T15:21:59.873Z,5.20
2018-11-13T15:25:16.630Z,4.63
2018-11-13T15:28:21.552Z,5.00
2018-11-13T15:31:45.258Z,5.83
2018-11-13T15:35:01.222Z,4.50
2018-11-13T15:38:07.329Z,5.33
2018-11-13T15:41:31.015Z,5.40
2018-11-13T15:44:35.862Z,5.83
2018-11-13T15:47:59.239Z,5.27
2018-11-13T15:51:15.732Z,6.20
2018-11-13T15:54:31.715Z,5.90
2018-11-13T15:57:37.382Z,5.53
2018-11-13T16:01:01.134Z,5.47
2018-11-13T16:04:24.825Z,5.58
2018-11-13T16:07:40.630Z,5.43
2018-11-13T16:10:45.569Z,6.20
2018-11-13T16:13:50.389Z,5.60
2018-11-13T16:17:14.118Z,17.10
2018-11-13T16:20:37.785Z,5.20
2018-11-13T16:24:01.465Z,5.40
2018-11-13T16:27:07.115Z,5.25
2018-11-13T16:30:32.294Z,6.37
2018-11-13T16:33:37.163Z,5.17
2018-11-13T16:37:00.996Z,6.50
2018-11-13T16:40:28.765Z,6.40
2018-11-13T16:43:45.440Z,6.03
2018-11-13T16:47:01.855Z,6.20
2018-11-13T16:50:14.477Z,5.70
2018-11-13T16:53:58.322Z,5.83
2018-11-13T16:57:22.409Z,5.40
2018-11-13T17:00:37.805Z,6.20
2018-11-13T17:03:54.292Z,5.93
2018-11-13T17:07:10.682Z,5.70
2018-11-13T17:10:16.923Z,5.60
2018-11-13T17:13:40.623Z,5.17
2018-11-13T17:16:45.560Z,5.50
2018-11-13T17:20:09.763Z,5.47
2018-11-13T17:23:33.467Z,5.03
2018-11-13T17:26:49.483Z,4.97
2018-11-13T17:30:05.424Z,5.30
2018-11-13T17:33:11.268Z,6.23
2018-11-13T17:36:17.089Z,6.70
2018-11-13T17:39:33.646Z,5.60
2018-11-13T17:42:50.122Z,6.13
2018-11-13T17:46:06.661Z,7.50
2018-11-13T17:49:22.515Z,5.80
2018-11-13T17:52:38.569Z,5.92
2018-11-13T17:55:54.775Z,6.53
2018-11-13T17:59:11.265Z,6.00
2018-11-13T18:02:27.654Z,5.50
2018-11-13T18:05:32.879Z,5.30
2018-11-13T18:08:56.558Z,7.50
2018-11-13T18:12:20.211Z,6.40
2018-11-13T18:15:36.506Z,6.53
2018-11-13T18:18:52.833Z,5.42
2018-11-13T18:21:57.792Z,5.73
2018-11-13T18:25:21.323Z,5.17
2018-11-13T18:28:37.521Z,6.10
2018-11-13T18:31:53.870Z,5.15
2018-11-13T18:34:58.918Z,7.13
2018-11-13T18:38:22.679Z,7.00
2018-11-13T18:41:27.688Z,6.50
2018-11-13T18:44:32.563Z,5.87
2018-11-13T18:47:37.662Z,5.83
2018-11-13T18:51:01.375Z,5.73
2018-11-13T18:54:06.401Z,5.97
2018-11-13T18:57:30.093Z,5.78
2018-11-13T19:00:46.034Z,6.90
2018-11-13T19:04:01.866Z,5.85
2018-11-13T19:07:26.483Z,6.20
2018-11-13T19:10:50.976Z,6.75
2018-11-13T19:14:07.390Z,5.93
2018-11-13T19:17:23.571Z,6.40
2018-11-13T19:20:39.862Z,5.87
2018-11-13T19:23:55.625Z,6.75
2018-11-13T19:27:11.712Z,6.47
2018-11-13T19:30:17.498Z,6.87
2018-11-13T19:33:41.404Z,6.53
2018-11-13T19:40:40.315Z,6.53
2018-11-13T19:43:45.114Z,6.33
2018-11-13T19:47:08.813Z,7.30
2018-11-13T19:50:33.898Z,7.17
2018-11-13T19:53:49.805Z,7.30
2018-11-13T19:56:54.690Z,9.03
2018-11-13T19:59:59.622Z,7.20
2018-11-13T20:03:23.463Z,7.20
2018-11-13T20:06:28.477Z,7.83
2018-11-13T20:16:45.602Z,7.90
2018-11-13T20:20:13.594Z,8.38
2018-11-13T20:23:18.914Z,8.03
2018-11-13T20:26:42.643Z,8.15
2018-11-13T20:29:58.632Z,7.90
2018-11-13T20:33:15.104Z,8.53
2018-11-13T20:36:31.487Z,8.40
2018-11-13T20:39:47.763Z,8.90
2018-11-13T20:43:04.967Z,8.50
2018-11-13T20:46:20.816Z,9.17
2018-11-13T20:49:37.243Z,9.10
2018-11-13T20:52:53.950Z,8.55
2018-11-13T20:56:09.997Z,9.23
2018-11-13T20:59:26.230Z,8.90
2018-11-13T21:02:31.230Z,8.90
2018-11-13T21:05:54.819Z,8.60
2018-11-13T21:09:11.056Z,9.30
2018-11-13T21:12:27.022Z,9.43
2018-11-13T21:15:43.354Z,9.53
2018-11-13T21:18:48.580Z,9.55
2018-11-13T21:22:12.272Z,8.98
2018-11-13T21:25:18.635Z,10.07
2018-11-13T21:28:42.188Z,10.07
2018-11-13T21:31:47.060Z,9.98
2018-11-13T21:34:51.940Z,10.18
2018-11-13T21:37:57.544Z,9.63
2018-11-13T21:41:21.253Z,10.30
2018-11-13T21:44:45.002Z,10.07
2018-11-13T21:47:49.898Z,10.00
2018-11-13T21:50:54.738Z,10.33
2018-11-13T21:54:20.973Z,9.85
2018-11-13T21:57:44.798Z,9.98
2018-11-13T22:00:49.855Z,11.28
2018-11-13T22:03:55.074Z,10.98
2018-11-13T22:07:18.774Z,10.30
2018-11-13T22:10:42.475Z,10.03
2018-11-13T22:13:58.192Z,10.45
2018-11-13T22:17:02.999Z,11.90
2018-11-13T22:20:08.955Z,12.20
2018-11-13T22:23:32.753Z,10.72
2018-11-13T22:26:37.912Z,11.75
2018-11-13T22:30:02.032Z,12.03
2018-11-13T22:33:25.323Z,11.93
2018-11-13T22:36:30.212Z,11.27
2018-11-13T22:39:53.900Z,11.53
2018-11-13T22:43:17.531Z,12.07
2018-11-13T22:46:22.376Z,11.93
2018-11-13T22:49:46.083Z,13.30
2018-11-13T22:52:51.115Z,12.53
2018-11-13T22:55:55.914Z,13.27
2018-11-13T22:59:00.749Z,14.13
2018-11-13T23:02:24.514Z,13.47
2018-11-13T23:05:29.383Z,14.50
2018-11-13T23:08:52.780Z,13.80
2018-11-13T23:11:57.574Z,13.60
2018-11-13T23:15:02.500Z,14.50
2018-11-13T23:18:28.207Z,14.53
2018-11-13T23:21:44.724Z,16.57
2018-11-13T23:25:00.821Z,14.33
2018-11-13T23:28:17.319Z,14.47
2018-11-13T23:31:33.454Z,15.83
2018-11-13T23:34:38.308Z,14.50
2018-11-13T23:38:02.562Z,15.87
2018-11-13T23:41:25.783Z,16.20
2018-11-13T23:44:42.453Z,16.17
2018-11-13T23:47:58.750Z,14.97
2018-11-13T23:51:04.861Z,14.70
2018-11-13T23:54:09.736Z,15.33
2018-11-13T23:57:33.388Z,15.80
